createdAt,value
2018-06-27T00:01:01.293Z,18.70
2018-06-27T00:03:29.642Z,16.77
2018-06-27T00:05:57.950Z,17.73
2018-06-27T00:08:26.270Z,13.57
2018-06-27T00:10:54.587Z,14.83
2018-06-27T00:13:22.921Z,14.70
2018-06-27T00:15:51.223Z,14.47
2018-06-27T00:18:19.291Z,15.20
2018-06-27T00:20:47.352Z,13.17
2018-06-27T00:23:15.659Z,14.10
2018-06-27T00:25:43.940Z,17.93
2018-06-27T00:28:12.267Z,12.80
2018-06-27T00:30:40.542Z,14.47
2018-06-27T00:33:08.868Z,13.67
2018-06-27T00:35:37.156Z,17.60
2018-06-27T00:38:11.129Z,16.00
2018-06-27T00:40:39.461Z,11.70
2018-06-27T00:43:07.759Z,15.27
2018-06-27T00:45:36.083Z,14.90
2018-06-27T00:48:04.424Z,15.90
2018-06-27T00:50:32.745Z,12.93
2018-06-27T00:53:01.057Z,16.63
2018-06-27T00:55:29.380Z,14.27
2018-06-27T00:57:57.724Z,18.50
2018-06-27T01:00:26.060Z,16.70
2018-06-27T01:02:54.386Z,15.20
2018-06-27T01:05:22.457Z,14.97
2018-06-27T01:07:50.781Z,17.00
2018-06-27T01:10:19.060Z,18.53
2018-06-27T01:12:47.380Z,11.47
2018-06-27T01:15:15.704Z,14.80
2018-06-27T01:17:49.448Z,12.60
2018-06-27T01:20:17.767Z,12.53
2018-06-27T01:22:46.100Z,13.60
2018-06-27T01:25:14.410Z,12.10
2018-06-27T01:27:42.471Z,14.40
2018-06-27T01:30:10.956Z,11.00
2018-06-27T01:32:39.338Z,11.50
2018-06-27T01:35:07.677Z,12.30
2018-06-27T01:37:35.982Z,14.13
2018-06-27T01:40:04.313Z,11.63
2018-06-27T01:42:32.614Z,19.20
2018-06-27T01:45:01.108Z,13.03
2018-06-27T01:47:29.446Z,13.43
2018-06-27T01:49:58.178Z,13.73
2018-06-27T01:52:26.520Z,12.30
2018-06-27T01:54:54.849Z,14.53
2018-06-27T01:57:23.175Z,13.20
2018-06-27T01:59:51.482Z,13.07
2018-06-27T02:02:19.828Z,13.57
2018-06-27T02:04:48.138Z,12.57
2018-06-27T02:07:16.464Z,15.83
2018-06-27T02:09:44.845Z,17.40
2018-06-27T02:12:13.187Z,14.30
2018-06-27T02:14:41.512Z,10.70
2018-06-27T02:17:09.841Z,12.80
2018-06-27T02:19:38.179Z,12.17
2018-06-27T02:22:06.598Z,15.90
2018-06-27T02:24:34.914Z,14.90
2018-06-27T02:27:03.269Z,16.87
2018-06-27T02:29:31.596Z,13.07
2018-06-27T02:31:59.910Z,15.27
2018-06-27T02:34:27.948Z,11.20
2018-06-27T02:36:56.254Z,16.57
2018-06-27T02:39:24.269Z,13.23
2018-06-27T02:41:52.599Z,13.27
2018-06-27T02:44:20.910Z,18.90
2018-06-27T02:46:49.208Z,13.07
2018-06-27T02:49:17.501Z,14.90
2018-06-27T02:51:45.813Z,13.17
2018-06-27T02:54:14.142Z,17.17
2018-06-27T02:56:42.456Z,12.70
2018-06-27T02:59:10.772Z,13.77
2018-06-27T03:01:39.116Z,14.37
2018-06-27T03:04:07.475Z,13.67
2018-06-27T03:06:35.532Z,15.27
2018-06-27T03:09:05.640Z,15.43
2018-06-27T03:11:33.954Z,13.47
2018-06-27T03:14:02.280Z,13.37
2018-06-27T03:16:30.585Z,17.73
2018-06-27T03:18:59.116Z,14.10
2018-06-27T03:21:27.434Z,14.00
2018-06-27T03:23:55.744Z,15.07
2018-06-27T03:26:24.439Z,15.10
2018-06-27T03:28:52.746Z,14.27
2018-06-27T03:31:21.064Z,16.30
2018-06-27T03:33:49.462Z,15.77
2018-06-27T03:36:17.722Z,15.77
2018-06-27T03:38:46.069Z,16.03
2018-06-27T03:41:14.438Z,15.40
2018-06-27T03:43:42.753Z,13.53
2018-06-27T03:46:10.812Z,15.40
2018-06-27T03:48:39.120Z,15.20
2018-06-27T03:51:07.410Z,15.10
2018-06-27T03:53:38.664Z,16.30
2018-06-27T03:56:07.594Z,14.67
2018-06-27T03:58:36.698Z,12.87
2018-06-27T04:01:05.468Z,16.57
2018-06-27T04:03:33.855Z,14.03
2018-06-27T04:06:02.203Z,18.27
2018-06-27T04:08:30.560Z,18.97
2018-06-27T04:10:58.942Z,16.17
2018-06-27T04:13:27.504Z,15.93
2018-06-27T04:15:55.698Z,19.20
2018-06-27T04:18:24.030Z,14.57
2018-06-27T04:20:52.492Z,15.93
2018-06-27T04:23:20.804Z,21.00
2018-06-27T04:25:49.113Z,15.10
2018-06-27T04:28:17.451Z,16.57
2018-06-27T04:30:45.813Z,15.77
2018-06-27T04:33:14.224Z,17.67
2018-06-27T04:35:42.568Z,19.30
2018-06-27T04:38:11.034Z,15.40
2018-06-27T04:40:39.546Z,21.03
2018-06-27T04:43:08.192Z,19.67
2018-06-27T04:45:36.458Z,18.30
2018-06-27T04:48:04.886Z,20.43
2018-06-27T04:50:33.230Z,19.77
2018-06-27T04:53:01.559Z,20.87
2018-06-27T04:55:30.074Z,17.63
2018-06-27T04:57:58.400Z,18.57
2018-06-27T05:00:27.892Z,20.30
2018-06-27T05:02:56.222Z,24.20
2018-06-27T05:05:24.861Z,20.83
2018-06-27T05:07:53.660Z,31.10
2018-06-27T05:10:21.743Z,24.40
2018-06-27T05:12:50.134Z,29.77
2018-06-27T05:15:18.798Z,34.73
2018-06-27T05:17:47.587Z,34.27
2018-06-27T05:20:15.961Z,34.97
2018-06-27T05:22:44.351Z,30.23
2018-06-27T05:25:12.740Z,30.73
2018-06-27T05:27:41.356Z,35.63
2018-06-27T05:30:09.964Z,35.43
2018-06-27T05:32:38.720Z,34.60
2018-06-27T05:35:07.082Z,40.93
2018-06-27T05:37:35.420Z,35.67
2018-06-27T05:40:03.805Z,35.43
2018-06-27T05:42:32.172Z,33.67
2018-06-27T05:45:00.638Z,38.00
2018-06-27T05:47:28.930Z,39.37
2018-06-27T05:49:57.203Z,41.43
2018-06-27T05:52:26.616Z,40.43
2018-06-27T05:55:00.411Z,37.80
2018-06-27T05:57:28.696Z,36.87
2018-06-27T05:59:57.018Z,36.67
2018-06-27T06:02:25.324Z,38.63
2018-06-27T06:04:53.657Z,37.70
2018-06-27T06:07:22.570Z,33.97
2018-06-27T06:09:50.944Z,33.83
2018-06-27T06:12:19.293Z,37.13
2018-06-27T06:14:47.352Z,33.40
2018-06-27T06:17:15.430Z,36.50
2018-06-27T06:19:43.507Z,37.87
2018-06-27T06:22:11.850Z,33.90
2018-06-27T06:24:45.367Z,31.93
2018-06-27T06:27:14.756Z,35.30
2018-06-27T06:29:44.059Z,30.53
2018-06-27T06:32:12.391Z,31.97
2018-06-27T06:34:41.239Z,34.03
2018-06-27T06:37:09.512Z,33.50
2018-06-27T06:39:37.850Z,31.63
2018-06-27T06:42:06.376Z,33.00
2018-06-27T06:44:34.708Z,30.13
2018-06-27T06:47:03.430Z,36.27
2018-06-27T06:49:31.744Z,29.50
2018-06-27T06:52:00.062Z,32.33
2018-06-27T06:54:28.637Z,35.00
2018-06-27T06:56:57.546Z,31.57
2018-06-27T06:59:25.845Z,30.93
2018-06-27T07:01:54.153Z,29.60
2018-06-27T07:04:22.468Z,34.17
2018-06-27T07:06:51.982Z,32.97
2018-06-27T07:09:20.272Z,31.63
2018-06-27T07:11:48.712Z,35.80
2018-06-27T07:14:17.074Z,32.93
2018-06-27T07:16:45.353Z,33.83
2018-06-27T07:19:13.676Z,37.53
2018-06-27T07:21:41.998Z,31.77
2018-06-27T07:24:10.292Z,33.43
2018-06-27T07:26:38.622Z,29.90
2018-06-27T07:29:07.138Z,30.10
2018-06-27T07:31:35.482Z,37.17
2018-06-27T07:34:03.838Z,31.53
2018-06-27T07:36:32.178Z,33.77
2018-06-27T07:39:00.470Z,31.10
2018-06-27T07:41:28.806Z,35.37
2018-06-27T07:43:57.108Z,35.50
2018-06-27T07:46:25.412Z,36.23
2018-06-27T07:48:54.085Z,34.60
2018-06-27T07:51:22.405Z,32.50
2018-06-27T07:53:50.706Z,32.73
2018-06-27T07:56:19.010Z,32.10
2018-06-27T07:58:47.302Z,37.53
2018-06-27T08:01:15.636Z,30.10
2018-06-27T08:03:44.146Z,29.00
2018-06-27T08:06:12.464Z,37.77
2018-06-27T08:08:40.830Z,36.03
2018-06-27T08:11:09.157Z,31.43
2018-06-27T08:13:37.468Z,32.10
2018-06-27T08:16:05.802Z,32.77
2018-06-27T08:18:42.825Z,32.80
2018-06-27T08:21:11.326Z,34.10
2018-06-27T08:23:39.785Z,32.30
2018-06-27T08:26:08.236Z,35.97
2018-06-27T08:28:36.468Z,31.50
2018-06-27T08:31:04.576Z,31.00
2018-06-27T08:33:32.882Z,31.70
2018-06-27T08:36:01.182Z,32.93
2018-06-27T08:38:29.532Z,30.87
2018-06-27T08:40:57.890Z,30.67
2018-06-27T08:43:26.520Z,31.50
2018-06-27T08:45:54.800Z,29.53
2018-06-27T08:48:23.140Z,30.40
2018-06-27T08:50:51.468Z,27.03
2018-06-27T08:53:19.768Z,26.33
2018-06-27T08:55:48.096Z,27.80
2018-06-27T08:58:16.440Z,27.80
2018-06-27T09:00:44.768Z,24.37
2018-06-27T09:03:13.102Z,28.03
2018-06-27T09:05:41.398Z,26.93
2018-06-27T09:08:09.720Z,22.97
2018-06-27T09:10:38.070Z,21.87
2018-06-27T09:13:06.466Z,24.43
2018-06-27T09:15:34.534Z,24.87
2018-06-27T09:18:02.844Z,27.60
2018-06-27T09:20:31.256Z,26.77
2018-06-27T09:22:59.560Z,23.07
2018-06-27T09:25:27.929Z,22.80
2018-06-27T09:27:56.260Z,26.83
2018-06-27T09:30:24.580Z,25.77
2018-06-27T09:32:52.880Z,26.20
2018-06-27T09:35:21.364Z,30.70
2018-06-27T09:37:49.707Z,27.20
2018-06-27T09:40:18.129Z,25.00
2018-06-27T09:42:46.532Z,23.33
2018-06-27T09:45:14.970Z,24.30
2018-06-27T09:47:43.272Z,23.27
2018-06-27T09:50:11.806Z,25.57
2018-06-27T09:52:40.180Z,23.53
2018-06-27T09:55:08.492Z,21.90
2018-06-27T09:57:36.854Z,19.40
2018-06-27T10:00:05.806Z,22.90
2018-06-27T10:02:34.142Z,17.70
2018-06-27T10:05:02.452Z,17.13
2018-06-27T10:07:30.772Z,19.90
2018-06-27T10:09:59.058Z,18.20
2018-06-27T10:12:27.516Z,18.60
2018-06-27T10:14:55.826Z,17.50
2018-06-27T10:17:24.192Z,18.90
2018-06-27T10:19:52.498Z,16.73
2018-06-27T10:22:20.877Z,15.73
2018-06-27T10:24:49.266Z,17.07
2018-06-27T10:27:17.601Z,25.53
2018-06-27T10:29:45.967Z,14.77
2018-06-27T10:32:14.313Z,18.17
2018-06-27T10:34:42.619Z,17.70
2018-06-27T10:37:10.969Z,17.47
2018-06-27T10:39:39.296Z,15.20
2018-06-27T10:42:07.647Z,17.73
2018-06-27T10:44:43.876Z,19.30
2018-06-27T10:47:12.212Z,17.97
2018-06-27T10:49:40.274Z,14.37
2018-06-27T10:52:08.626Z,17.10
2018-06-27T10:54:43.177Z,13.70
2018-06-27T10:57:11.498Z,10.90
2018-06-27T10:59:39.821Z,13.73
2018-06-27T11:02:08.160Z,11.90
2018-06-27T11:04:36.532Z,14.27
2018-06-27T11:07:04.874Z,15.87
2018-06-27T11:09:33.206Z,12.07
2018-06-27T11:12:01.580Z,12.60
2018-06-27T11:14:29.940Z,18.03
2018-06-27T11:16:58.366Z,13.30
2018-06-27T11:19:26.738Z,14.57
2018-06-27T13:15:12.595Z,16.87
2018-06-27T13:17:40.964Z,16.87
2018-06-27T13:20:09.326Z,14.60
2018-06-27T13:22:37.398Z,13.33
2018-06-27T13:25:05.798Z,16.67
2018-06-27T13:27:33.828Z,19.47
2018-06-27T13:30:02.218Z,13.43
2018-06-27T13:32:30.580Z,13.73
2018-06-27T13:34:59.002Z,11.53
2018-06-27T13:37:27.286Z,11.87
2018-06-27T13:39:55.602Z,14.10
2018-06-27T13:42:24.374Z,16.10
2018-06-27T13:44:52.692Z,16.33
2018-06-27T13:47:21.012Z,16.23
2018-06-27T13:49:49.551Z,16.80
2018-06-27T13:52:17.874Z,16.13
2018-06-27T13:54:51.694Z,15.07
2018-06-27T13:57:20.024Z,16.53
2018-06-27T13:59:48.352Z,16.57
2018-06-27T14:02:16.685Z,19.73
2018-06-27T14:04:45.224Z,16.00
2018-06-27T14:07:13.624Z,15.67
2018-06-27T14:09:41.944Z,18.23
2018-06-27T14:12:10.284Z,15.47
2018-06-27T14:14:38.626Z,14.10
2018-06-27T14:17:06.998Z,18.13
2018-06-27T14:19:35.376Z,15.77
2018-06-27T14:22:03.988Z,14.90
2018-06-27T14:24:32.304Z,14.83
2018-06-27T14:27:00.594Z,11.93
2018-06-27T14:29:29.061Z,15.23
2018-06-27T14:31:57.604Z,12.90
2018-06-27T14:34:25.942Z,13.43
2018-06-27T14:36:54.264Z,13.23
2018-06-27T14:39:22.664Z,17.40
2018-06-27T14:41:50.956Z,17.00
2018-06-27T14:44:19.598Z,14.13
2018-06-27T14:46:47.988Z,11.50
2018-06-27T14:49:16.402Z,14.63
2018-06-27T14:51:44.736Z,16.37
2018-06-27T14:54:13.146Z,13.57
2018-06-27T14:56:41.534Z,12.20
2018-06-27T14:59:09.866Z,10.33
2018-06-27T15:01:38.219Z,14.43
2018-06-27T15:04:06.582Z,14.07
2018-06-27T15:06:34.887Z,11.40
2018-06-27T15:09:03.260Z,15.17
2018-06-27T15:11:31.596Z,12.40
2018-06-27T15:13:59.948Z,11.67
2018-06-27T15:16:28.268Z,12.47
2018-06-27T15:18:56.584Z,12.03
2018-06-27T15:21:24.922Z,11.37
2018-06-27T15:23:53.285Z,12.43
2018-06-27T15:26:21.870Z,9.83
2018-06-27T15:28:50.422Z,10.80
2018-06-27T15:31:18.796Z,9.27
2018-06-27T15:33:47.138Z,12.07
2018-06-27T15:36:15.506Z,10.77
2018-06-27T15:38:44.024Z,10.03
2018-06-27T15:41:12.358Z,10.13
2018-06-27T15:43:40.674Z,10.73
2018-06-27T15:46:09.059Z,6.77
2018-06-27T15:48:37.406Z,9.17
2018-06-27T15:51:05.959Z,12.70
2018-06-27T15:53:34.244Z,9.63
2018-06-27T15:56:02.634Z,12.93
2018-06-27T15:58:30.956Z,10.73
2018-06-27T16:00:59.278Z,9.67
2018-06-27T16:03:27.646Z,11.83
2018-06-27T16:05:56.037Z,13.17
2018-06-27T16:08:24.373Z,10.50
2018-06-27T16:10:52.498Z,8.90
2018-06-27T16:13:20.813Z,11.57
2018-06-27T16:15:49.145Z,13.23
2018-06-27T16:18:17.475Z,11.50
2018-06-27T16:20:45.808Z,9.17
2018-06-27T16:23:14.169Z,9.27
2018-06-27T16:25:42.510Z,10.47
2018-06-27T16:28:10.570Z,8.60
2018-06-27T16:30:38.902Z,10.47
2018-06-27T16:33:07.268Z,10.53
2018-06-27T16:35:35.627Z,8.90
2018-06-27T16:38:05.213Z,12.90
2018-06-27T16:40:34.562Z,7.67
2018-06-27T16:43:02.893Z,9.50
2018-06-27T16:45:31.243Z,10.77
2018-06-27T16:47:59.638Z,11.30
2018-06-27T16:50:27.976Z,8.50
2018-06-27T16:52:56.313Z,10.03
2018-06-27T16:55:24.668Z,10.07
2018-06-27T16:57:53.002Z,10.37
2018-06-27T17:00:21.342Z,9.03
2018-06-27T17:02:49.676Z,9.90
2018-06-27T17:05:18.053Z,10.27
2018-06-27T17:07:46.392Z,8.73
2018-06-27T17:10:14.732Z,9.43
2018-06-27T17:12:43.066Z,10.57
2018-06-27T17:15:11.366Z,11.77
2018-06-27T17:17:39.696Z,10.03
2018-06-27T17:20:08.249Z,9.30
2018-06-27T17:22:36.547Z,7.60
2018-06-27T17:25:05.007Z,12.23
2018-06-27T17:27:33.387Z,10.77
2018-06-27T17:30:01.728Z,6.73
2018-06-27T17:32:30.065Z,9.50
2018-06-27T17:34:58.391Z,10.60
2018-06-27T17:37:26.736Z,9.23
2018-06-27T17:39:55.088Z,10.53
2018-06-27T17:42:23.410Z,13.50
2018-06-27T17:44:51.748Z,10.17
2018-06-27T17:47:20.061Z,9.57
2018-06-27T17:49:48.385Z,11.43
2018-06-27T17:52:16.714Z,10.20
2018-06-27T17:54:45.044Z,11.50
2018-06-27T17:57:13.345Z,10.40
2018-06-27T17:59:41.666Z,12.10
2018-06-27T18:02:10.064Z,13.77
2018-06-27T18:04:38.374Z,9.73
2018-06-27T18:07:06.705Z,12.33
2018-06-27T18:09:35.029Z,12.57
2018-06-27T18:12:03.100Z,10.90
2018-06-27T18:14:31.419Z,13.90
2018-06-27T18:16:59.778Z,13.87
2018-06-27T18:19:28.086Z,10.10
2018-06-27T18:21:56.436Z,10.97
2018-06-27T18:24:24.820Z,14.07
2018-06-27T18:26:53.158Z,13.27
2018-06-27T18:29:21.495Z,13.77
2018-06-27T18:31:49.836Z,11.73
2018-06-27T18:34:18.176Z,11.27
2018-06-27T18:36:46.484Z,11.57
2018-06-27T18:39:14.820Z,10.57
2018-06-27T18:41:43.148Z,14.13
2018-06-27T18:44:11.592Z,12.47
2018-06-27T18:46:39.868Z,11.60
2018-06-27T18:49:08.183Z,11.20
2018-06-27T18:51:36.558Z,14.43
2018-06-27T18:54:04.900Z,12.87
2018-06-27T18:56:33.248Z,10.73
2018-06-27T18:59:01.653Z,13.53
2018-06-27T19:01:29.993Z,13.27
2018-06-27T19:03:58.384Z,18.43
2018-06-27T19:06:26.734Z,18.63
2018-06-27T19:08:55.104Z,11.00
2018-06-27T19:11:23.460Z,11.97
2018-06-27T19:13:51.797Z,16.23
2018-06-27T19:16:20.216Z,10.63
2018-06-27T19:18:48.566Z,14.07
2018-06-27T19:21:16.948Z,10.80
2018-06-27T19:23:45.402Z,14.63
2018-06-27T19:26:13.833Z,12.23
2018-06-27T19:28:42.165Z,14.07
2018-06-27T19:31:10.508Z,17.90
2018-06-27T19:33:39.002Z,15.03
2018-06-27T19:36:07.320Z,14.00
2018-06-27T19:38:35.490Z,14.53
2018-06-27T19:41:03.919Z,12.57
2018-06-27T19:43:32.203Z,12.93
2018-06-27T19:46:00.527Z,12.67
2018-06-27T19:48:28.901Z,12.73
2018-06-27T19:50:57.245Z,14.63
2018-06-27T19:53:25.593Z,13.97
2018-06-27T19:55:53.959Z,13.93
2018-06-27T19:58:22.424Z,15.13
2018-06-27T20:00:50.697Z,12.77
2018-06-27T20:03:19.021Z,16.17
2018-06-27T20:05:47.345Z,14.70
2018-06-27T20:08:15.691Z,18.63
2018-06-27T20:10:44.025Z,18.67
2018-06-27T20:13:12.081Z,18.93
2018-06-27T20:15:40.291Z,14.40
2018-06-27T20:18:08.665Z,16.73
2018-06-27T20:20:37.165Z,15.33
2018-06-27T20:23:05.741Z,14.67
2018-06-27T20:25:34.067Z,11.73
2018-06-27T20:28:02.417Z,17.57
2018-06-27T20:30:30.753Z,14.27
2018-06-27T20:32:59.103Z,20.27
2018-06-27T20:35:27.229Z,14.07
2018-06-27T20:37:55.625Z,17.60
2018-06-27T20:40:23.999Z,16.90
2018-06-27T20:42:52.369Z,15.60
2018-06-27T20:45:20.709Z,15.20
2018-06-27T20:47:49.052Z,18.90
2018-06-27T20:50:17.405Z,16.60
2018-06-27T20:52:45.787Z,18.13
2018-06-27T20:55:14.129Z,16.33
2018-06-27T20:57:42.463Z,13.73
2018-06-27T21:00:10.813Z,13.87
2018-06-27T21:02:39.129Z,19.30
2018-06-27T21:05:07.501Z,16.00
2018-06-27T21:07:35.567Z,13.40
2018-06-27T21:10:03.951Z,17.50
2018-06-27T21:12:32.277Z,13.93
2018-06-27T21:15:00.621Z,13.17
2018-06-27T21:17:28.963Z,12.23
2018-06-27T21:19:57.304Z,14.87
2018-06-27T21:22:25.694Z,16.37
2018-06-27T21:24:54.028Z,17.67
2018-06-27T21:27:22.343Z,12.93
2018-06-27T21:29:50.661Z,17.77
2018-06-27T21:32:18.999Z,15.97
2018-06-27T21:34:47.291Z,17.80
2018-06-27T21:37:15.691Z,14.53
2018-06-27T21:39:43.995Z,14.63
2018-06-27T21:42:12.326Z,12.53
2018-06-27T21:44:40.715Z,13.37
2018-06-27T21:47:09.025Z,15.63
2018-06-27T21:49:37.349Z,14.57
2018-06-27T21:52:05.880Z,17.37
2018-06-27T21:54:34.181Z,13.27
2018-06-27T21:57:02.491Z,18.63
2018-06-27T21:59:30.834Z,14.70
2018-06-27T22:01:59.179Z,14.10
2018-06-27T22:04:27.269Z,15.20
2018-06-27T22:06:55.325Z,17.93
2018-06-27T22:09:23.535Z,15.23
2018-06-27T22:11:51.841Z,14.70
2018-06-27T22:14:20.179Z,16.90
2018-06-27T22:16:48.528Z,13.47
2018-06-27T22:21:51.762Z,14.30
2018-06-27T22:24:20.005Z,15.03
2018-06-27T22:26:48.345Z,18.30
2018-06-27T22:29:16.675Z,15.77
2018-06-27T22:31:45.043Z,14.73
2018-06-27T22:34:13.353Z,20.53
2018-06-27T22:36:41.686Z,16.40
2018-06-27T22:39:11.191Z,16.70
2018-06-27T22:41:40.043Z,15.50
2018-06-27T22:44:08.319Z,21.10
2018-06-27T22:46:37.148Z,15.70
2018-06-27T22:49:05.754Z,15.83
2018-06-27T22:51:34.110Z,20.20
2018-06-27T22:54:02.485Z,15.90
2018-06-27T22:56:30.817Z,14.23
2018-06-27T22:58:59.113Z,14.27
2018-06-27T23:01:27.492Z,18.10
2018-06-27T23:03:55.798Z,13.67
2018-06-27T23:06:24.444Z,14.00
2018-06-27T23:08:52.721Z,16.50
2018-06-27T23:11:21.063Z,17.27
2018-06-27T23:13:49.429Z,16.63
2018-06-27T23:16:17.759Z,20.30
2018-06-27T23:18:46.199Z,12.70
2018-06-27T23:21:14.251Z,15.23
2018-06-27T23:23:42.597Z,13.93
2018-06-27T23:26:10.958Z,19.03
2018-06-27T23:28:39.275Z,14.20
2018-06-27T23:31:07.559Z,17.23
2018-06-27T23:33:35.894Z,16.67
2018-06-27T23:36:04.330Z,14.23
2018-06-27T23:38:32.699Z,13.73
2018-06-27T23:41:01.049Z,16.17
2018-06-27T23:43:29.394Z,14.63
2018-06-27T23:45:57.690Z,17.80
2018-06-27T23:48:26.029Z,15.13
2018-06-27T23:50:54.343Z,15.63
2018-06-27T23:53:22.666Z,13.73
2018-06-27T23:55:50.981Z,16.03
2018-06-27T23:58:19.272Z,15.13
